createdAt,value
2024-01-06T00:03:12.618Z,92.40
2024-01-06T00:13:16.015Z,86.50
2024-01-06T00:23:19.250Z,77.20
2024-01-06T00:33:22.499Z,72.90
2024-01-06T00:43:25.618Z,73.30
2024-01-06T00:53:28.966Z,73.80
2024-01-06T01:03:32.190Z,74.50
2024-01-06T01:13:35.471Z,81.50
2024-01-06T01:23:38.664Z,69.00
2024-01-06T01:33:42.091Z,63.50
2024-01-06T01:43:47.140Z,61.30
2024-01-06T01:53:50.768Z,58.90
2024-01-06T02:03:54.135Z,58.50
2024-01-06T02:13:57.333Z,56.90
2024-01-06T02:24:00.602Z,52.70
2024-01-06T02:34:04.121Z,60.00
2024-01-06T02:44:09.097Z,49.10
2024-01-06T02:54:13.970Z,45.80
2024-01-06T03:04:17.344Z,39.10
2024-01-06T03:14:20.672Z,48.50
2024-01-06T03:24:25.441Z,41.20
2024-01-06T03:34:28.575Z,39.20
2024-01-06T03:44:34.833Z,38.50
2024-01-06T03:54:38.265Z,37.50
2024-01-06T04:04:41.445Z,30.10
2024-01-06T04:14:44.757Z,38.60
2024-01-06T04:24:48.045Z,35.00
2024-01-06T04:34:51.059Z,31.10
2024-01-06T04:44:54.229Z,30.80
2024-01-06T04:54:57.381Z,30.30
2024-01-06T05:05:00.645Z,38.00
2024-01-06T05:15:05.084Z,41.50
2024-01-06T05:25:08.954Z,36.60
2024-01-06T05:35:12.072Z,33.00
2024-01-06T05:45:15.576Z,29.30
2024-01-06T05:55:18.982Z,27.60
2024-01-06T06:05:22.007Z,22.30
2024-01-06T06:15:25.240Z,26.80
2024-01-06T06:25:28.614Z,26.20
2024-01-06T06:35:31.913Z,25.50
2024-01-06T06:45:35.010Z,24.60
2024-01-06T06:55:38.955Z,30.30
2024-01-06T07:05:42.310Z,24.80
2024-01-06T07:15:46.367Z,26.00
2024-01-06T07:25:50.608Z,24.70
2024-01-06T07:35:53.851Z,27.10
2024-01-06T07:45:57.357Z,24.60
2024-01-06T07:56:00.609Z,27.10
2024-01-06T08:06:04.897Z,31.50
2024-01-06T08:16:08.211Z,35.00
2024-01-06T08:26:13.666Z,37.80
2024-01-06T08:36:18.150Z,43.40
2024-01-06T08:46:21.495Z,38.10
2024-01-06T08:56:24.620Z,48.00
2024-01-06T09:06:27.990Z,33.00
2024-01-06T09:16:31.101Z,17.80
2024-01-06T09:26:37.171Z,13.00
2024-01-06T09:36:40.364Z,16.30
2024-01-06T09:46:44.930Z,13.00
2024-01-06T09:56:50.328Z,23.10
2024-01-06T10:06:53.368Z,19.30
2024-01-06T10:16:57.066Z,30.20
2024-01-06T10:27:00.643Z,39.50
2024-01-06T10:37:05.167Z,39.10
2024-01-06T10:47:09.230Z,36.80
2024-01-06T10:57:13.174Z,28.40
2024-01-06T11:07:25.701Z,56.00
2024-01-06T11:18:00.168Z,47.70
2024-01-06T11:28:09.007Z,53.10
2024-01-06T11:38:15.241Z,38.40
2024-01-06T11:48:20.274Z,25.60
2024-01-06T11:58:24.642Z,23.90
2024-01-06T12:08:29.147Z,34.00
2024-01-06T12:18:32.167Z,38.10
2024-01-06T12:28:37.790Z,44.60
2024-01-06T12:38:43.882Z,43.80
2024-01-06T12:48:50.224Z,47.70
2024-01-06T12:58:54.445Z,44.40
2024-01-06T13:08:57.911Z,39.30
2024-01-06T13:19:01.808Z,35.10
2024-01-06T13:29:05.270Z,32.80
2024-01-06T13:39:08.355Z,34.30
2024-01-06T13:49:13.608Z,55.80
2024-01-06T13:59:19.067Z,30.40
2024-01-06T14:09:23.514Z,34.10
2024-01-06T14:19:27.083Z,32.10
2024-01-06T14:29:31.677Z,38.00
2024-01-06T14:39:35.584Z,30.40
2024-01-06T14:49:39.692Z,33.10
2024-01-06T14:59:44.387Z,33.50
2024-01-06T15:09:56.120Z,29.90
2024-01-06T15:20:00.326Z,35.40
2024-01-06T15:30:08.313Z,34.10
2024-01-06T15:40:15.154Z,33.50
2024-01-06T15:50:18.491Z,32.40
2024-01-06T16:00:22.840Z,34.60
2024-01-06T16:10:29.798Z,24.90
2024-01-06T16:20:33.253Z,30.70
2024-01-06T16:30:36.826Z,28.40
2024-01-06T16:40:41.285Z,28.10
2024-01-06T16:50:46.396Z,28.40
2024-01-06T17:00:49.922Z,24.90
2024-01-06T17:10:53.204Z,25.00
2024-01-06T17:20:56.212Z,18.90
2024-01-06T17:31:00.426Z,21.60
2024-01-06T17:41:06.332Z,21.00
2024-01-06T17:51:11.531Z,20.10
2024-01-06T18:01:16.246Z,16.80
2024-01-06T18:11:19.540Z,18.30
2024-01-06T18:21:22.706Z,13.70
2024-01-06T18:31:26.346Z,12.00
2024-01-06T18:41:29.693Z,15.20
2024-01-06T18:51:38.477Z,12.00
2024-01-06T19:01:44.700Z,13.10
2024-01-06T19:11:48.629Z,12.60
2024-01-06T19:21:51.797Z,11.20
2024-01-06T19:31:57.581Z,10.60
2024-01-06T19:42:00.591Z,9.60
2024-01-06T19:52:04.895Z,8.90
2024-01-06T20:02:08.042Z,9.70
2024-01-06T20:12:11.221Z,12.10
2024-01-06T20:22:15.092Z,8.50
2024-01-06T20:32:18.502Z,7.70
2024-01-06T20:42:22.036Z,8.90
2024-01-06T20:52:28.274Z,6.10
2024-01-06T21:02:31.990Z,7.20
2024-01-06T21:12:36.542Z,6.30
2024-01-06T21:22:40.759Z,6.90
2024-01-06T21:32:44.380Z,6.10
2024-01-06T21:42:48.144Z,6.30
2024-01-06T21:52:51.513Z,5.90
2024-01-06T22:02:54.746Z,6.30
2024-01-06T22:12:58.237Z,6.20
2024-01-06T22:23:01.532Z,7.50
2024-01-06T22:33:05.353Z,6.60
2024-01-06T22:43:08.472Z,7.00
2024-01-06T22:53:11.589Z,4.80
2024-01-06T23:03:15.074Z,6.20
2024-01-06T23:13:20.093Z,6.10
2024-01-06T23:23:23.201Z,7.10
2024-01-06T23:33:26.596Z,7.10
2024-01-06T23:43:30.015Z,7.80
2024-01-06T23:53:33.259Z,7.50
